sensor_id;sensor_type;location;lat;lon;timestamp;P1;durP1;ratioP1;P2;durP2;ratioP2
65896;SDS011;52677;50.898;10.854;2022-12-29T00:00:28;2.25;;;1.70;;
65896;SDS011;52677;50.898;10.854;2022-12-29T00:02:28;4.30;;;1.60;;
65896;SDS011;52677;50.898;10.854;2022-12-29T00:04:28;4.10;;;1.40;;
65896;SDS011;52677;50.898;10.854;2022-12-29T00:06:29;2.47;;;1.83;;
65896;SDS011;52677;50.898;10.854;2022-12-29T00:08:30;1.83;;;1.50;;
65896;SDS011;52677;50.898;10.854;2022-12-29T00:10:39;2.33;;;2.00;;
65896;SDS011;52677;50.898;10.854;2022-12-29T00:12:39;2.97;;;1.65;;
65896;SDS011;52677;50.898;10.854;2022-12-29T00:14:58;1.90;;;1.42;;
65896;SDS011;52677;50.898;10.854;2022-12-29T00:17:17;3.30;;;2.20;;
65896;SDS011;52677;50.898;10.854;2022-12-29T00:19:17;2.17;;;1.50;;
65896;SDS011;52677;50.898;10.854;2022-12-29T00:21:36;1.60;;;1.42;;
65896;SDS011;52677;50.898;10.854;2022-12-29T00:23:55;2.53;;;1.75;;
65896;SDS011;52677;50.898;10.854;2022-12-29T00:26:27;3.78;;;1.60;;
65896;SDS011;52677;50.898;10.854;2022-12-29T00:28:45;3.58;;;1.73;;
65896;SDS011;52677;50.898;10.854;2022-12-29T00:31:06;2.38;;;1.83;;
65896;SDS011;52677;50.898;10.854;2022-12-29T00:33:30;4.05;;;1.88;;
65896;SDS011;52677;50.898;10.854;2022-12-29T00:36:11;4.00;;;1.73;;
65896;SDS011;52677;50.898;10.854;2022-12-29T00:38:19;2.50;;;2.00;;
65896;SDS011;52677;50.898;10.854;2022-12-29T00:40:40;2.60;;;1.80;;
65896;SDS011;52677;50.898;10.854;2022-12-29T00:42:59;3.72;;;1.90;;
65896;SDS011;52677;50.898;10.854;2022-12-29T00:45:17;3.15;;;1.77;;
65896;SDS011;52677;50.898;10.854;2022-12-29T00:47:18;2.67;;;1.77;;
65896;SDS011;52677;50.898;10.854;2022-12-29T00:49:18;2.15;;;1.48;;
65896;SDS011;52677;50.898;10.854;2022-12-29T00:51:31;4.20;;;1.92;;
65896;SDS011;52677;50.898;10.854;2022-12-29T00:53:31;2.72;;;1.85;;
65896;SDS011;52677;50.898;10.854;2022-12-29T00:55:35;3.03;;;1.92;;
65896;SDS011;52677;50.898;10.854;2022-12-29T00:57:37;2.30;;;1.83;;
65896;SDS011;52677;50.898;10.854;2022-12-29T00:59:38;2.47;;;1.60;;
65896;SDS011;52677;50.898;10.854;2022-12-29T01:01:40;3.20;;;1.90;;
65896;SDS011;52677;50.898;10.854;2022-12-29T01:03:41;2.60;;;2.00;;
65896;SDS011;52677;50.898;10.854;2022-12-29T01:05:41;2.72;;;1.60;;
65896;SDS011;52677;50.898;10.854;2022-12-29T01:07:41;2.53;;;2.10;;
65896;SDS011;52677;50.898;10.854;2022-12-29T01:09:42;3.38;;;1.80;;
65896;SDS011;52677;50.898;10.854;2022-12-29T01:12:01;3.53;;;1.73;;
65896;SDS011;52677;50.898;10.854;2022-12-29T01:14:02;1.80;;;1.52;;
65896;SDS011;52677;50.898;10.854;2022-12-29T01:16:03;3.70;;;1.73;;
65896;SDS011;52677;50.898;10.854;2022-12-29T01:18:05;2.70;;;1.90;;
65896;SDS011;52677;50.898;10.854;2022-12-29T01:20:05;1.70;;;1.60;;
65896;SDS011;52677;50.898;10.854;2022-12-29T01:22:06;2.80;;;1.80;;
65896;SDS011;52677;50.898;10.854;2022-12-29T01:24:06;2.83;;;1.77;;
65896;SDS011;52677;50.898;10.854;2022-12-29T01:26:08;3.25;;;1.60;;
65896;SDS011;52677;50.898;10.854;2022-12-29T01:28:12;3.38;;;1.83;;
65896;SDS011;52677;50.898;10.854;2022-12-29T01:30:12;2.10;;;1.45;;
65896;SDS011;52677;50.898;10.854;2022-12-29T01:32:13;2.55;;;1.63;;
65896;SDS011;52677;50.898;10.854;2022-12-29T01:34:13;3.08;;;1.80;;
65896;SDS011;52677;50.898;10.854;2022-12-29T01:36:14;2.00;;;1.50;;
65896;SDS011;52677;50.898;10.854;2022-12-29T01:38:15;3.13;;;1.70;;
65896;SDS011;52677;50.898;10.854;2022-12-29T01:40:16;3.05;;;2.10;;
65896;SDS011;52677;50.898;10.854;2022-12-29T01:42:17;3.33;;;2.00;;
65896;SDS011;52677;50.898;10.854;2022-12-29T01:46:45;2.30;;;1.88;;
65896;SDS011;52677;50.898;10.854;2022-12-29T01:48:51;2.60;;;1.95;;
65896;SDS011;52677;50.898;10.854;2022-12-29T01:50:55;2.13;;;1.67;;
65896;SDS011;52677;50.898;10.854;2022-12-29T01:52:57;4.07;;;1.60;;
65896;SDS011;52677;50.898;10.854;2022-12-29T01:55:02;3.22;;;1.67;;
65896;SDS011;52677;50.898;10.854;2022-12-29T01:57:08;2.55;;;1.55;;
65896;SDS011;52677;50.898;10.854;2022-12-29T01:59:15;2.30;;;1.48;;
65896;SDS011;52677;50.898;10.854;2022-12-29T02:01:21;4.57;;;2.08;;
65896;SDS011;52677;50.898;10.854;2022-12-29T02:03:22;2.45;;;1.77;;
65896;SDS011;52677;50.898;10.854;2022-12-29T02:07:42;3.05;;;1.58;;
65896;SDS011;52677;50.898;10.854;2022-12-29T02:09:47;3.03;;;1.67;;
65896;SDS011;52677;50.898;10.854;2022-12-29T02:11:49;2.67;;;1.40;;
65896;SDS011;52677;50.898;10.854;2022-12-29T02:13:50;2.00;;;1.40;;
65896;SDS011;52677;50.898;10.854;2022-12-29T02:25:15;1.80;;;1.40;;
65896;SDS011;52677;50.898;10.854;2022-12-29T02:34:05;2.28;;;1.60;;
65896;SDS011;52677;50.898;10.854;2022-12-29T02:36:30;3.42;;;2.00;;
65896;SDS011;52677;50.898;10.854;2022-12-29T02:40:58;3.08;;;1.63;;
65896;SDS011;52677;50.898;10.854;2022-12-29T02:45:09;2.00;;;1.52;;
65896;SDS011;52677;50.898;10.854;2022-12-29T02:49:42;1.92;;;1.60;;
65896;SDS011;52677;50.898;10.854;2022-12-29T02:51:53;2.92;;;2.00;;
65896;SDS011;52677;50.898;10.854;2022-12-29T02:53:59;3.78;;;1.67;;
65896;SDS011;52677;50.898;10.854;2022-12-29T02:56:19;2.58;;;2.03;;
65896;SDS011;52677;50.898;10.854;2022-12-29T02:58:21;4.10;;;1.90;;
65896;SDS011;52677;50.898;10.854;2022-12-29T03:11:32;1.60;;;1.23;;
65896;SDS011;52677;50.898;10.854;2022-12-29T03:14:07;1.67;;;1.27;;
65896;SDS011;52677;50.898;10.854;2022-12-29T03:24:27;1.67;;;1.40;;
65896;SDS011;52677;50.898;10.854;2022-12-29T03:26:31;2.78;;;1.30;;
65896;SDS011;52677;50.898;10.854;2022-12-29T03:28:35;2.30;;;1.77;;
65896;SDS011;52677;50.898;10.854;2022-12-29T03:30:38;1.50;;;1.20;;
65896;SDS011;52677;50.898;10.854;2022-12-29T03:32:44;2.10;;;1.33;;
65896;SDS011;52677;50.898;10.854;2022-12-29T03:34:47;2.42;;;1.40;;
65896;SDS011;52677;50.898;10.854;2022-12-29T03:36:53;1.85;;;1.45;;
65896;SDS011;52677;50.898;10.854;2022-12-29T03:39:10;1.83;;;1.27;;
65896;SDS011;52677;50.898;10.854;2022-12-29T03:41:17;2.20;;;1.40;;
65896;SDS011;52677;50.898;10.854;2022-12-29T03:43:22;2.35;;;1.50;;
65896;SDS011;52677;50.898;10.854;2022-12-29T03:45:23;1.85;;;1.30;;
65896;SDS011;52677;50.898;10.854;2022-12-29T03:47:23;2.40;;;1.42;;
65896;SDS011;52677;50.898;10.854;2022-12-29T03:49:24;3.13;;;1.40;;
65896;SDS011;52677;50.898;10.854;2022-12-29T03:51:24;1.75;;;1.45;;
65896;SDS011;52677;50.898;10.854;2022-12-29T03:53:25;1.63;;;1.40;;
65896;SDS011;52677;50.898;10.854;2022-12-29T03:55:25;2.03;;;1.50;;
65896;SDS011;52677;50.898;10.854;2022-12-29T03:57:26;1.70;;;1.30;;
65896;SDS011;52677;50.898;10.854;2022-12-29T03:59:26;1.63;;;1.23;;
65896;SDS011;52677;50.898;10.854;2022-12-29T04:01:26;2.42;;;1.30;;
65896;SDS011;52677;50.898;10.854;2022-12-29T04:03:27;1.83;;;1.23;;
65896;SDS011;52677;50.898;10.854;2022-12-29T04:05:27;2.03;;;1.20;;
65896;SDS011;52677;50.898;10.854;2022-12-29T04:07:27;2.10;;;1.40;;
65896;SDS011;52677;50.898;10.854;2022-12-29T04:09:28;1.42;;;1.13;;
65896;SDS011;52677;50.898;10.854;2022-12-29T04:11:29;2.05;;;1.20;;
65896;SDS011;52677;50.898;10.854;2022-12-29T04:13:30;4.10;;;1.30;;
65896;SDS011;52677;50.898;10.854;2022-12-29T04:15:30;2.15;;;1.67;;
65896;SDS011;52677;50.898;10.854;2022-12-29T04:17:30;2.35;;;1.50;;
65896;SDS011;52677;50.898;10.854;2022-12-29T04:19:31;1.90;;;1.40;;
65896;SDS011;52677;50.898;10.854;2022-12-29T04:21:31;1.88;;;1.30;;
65896;SDS011;52677;50.898;10.854;2022-12-29T04:23:36;2.30;;;1.40;;
65896;SDS011;52677;50.898;10.854;2022-12-29T04:25:37;1.40;;;1.30;;
65896;SDS011;52677;50.898;10.854;2022-12-29T04:27:37;1.23;;;1.13;;
65896;SDS011;52677;50.898;10.854;2022-12-29T04:29:38;1.88;;;1.30;;
65896;SDS011;52677;50.898;10.854;2022-12-29T04:31:38;3.58;;;1.40;;
65896;SDS011;52677;50.898;10.854;2022-12-29T04:33:38;1.77;;;1.20;;
65896;SDS011;52677;50.898;10.854;2022-12-29T04:35:39;2.65;;;1.25;;
65896;SDS011;52677;50.898;10.854;2022-12-29T04:37:39;1.48;;;1.15;;
65896;SDS011;52677;50.898;10.854;2022-12-29T04:39:39;1.38;;;1.05;;
65896;SDS011;52677;50.898;10.854;2022-12-29T04:41:40;2.30;;;1.17;;
65896;SDS011;52677;50.898;10.854;2022-12-29T04:43:40;1.90;;;1.50;;
65896;SDS011;52677;50.898;10.854;2022-12-29T04:45:44;1.58;;;1.30;;
65896;SDS011;52677;50.898;10.854;2022-12-29T04:47:45;3.22;;;1.27;;
65896;SDS011;52677;50.898;10.854;2022-12-29T04:49:45;2.58;;;1.40;;
65896;SDS011;52677;50.898;10.854;2022-12-29T04:51:45;2.65;;;1.30;;
65896;SDS011;52677;50.898;10.854;2022-12-29T04:53:46;1.83;;;1.40;;
65896;SDS011;52677;50.898;10.854;2022-12-29T04:55:50;2.00;;;1.30;;
65896;SDS011;52677;50.898;10.854;2022-12-29T04:57:52;1.27;;;1.17;;
65896;SDS011;52677;50.898;10.854;2022-12-29T04:59:52;1.25;;;1.10;;
65896;SDS011;52677;50.898;10.854;2022-12-29T05:01:53;1.40;;;1.30;;
65896;SDS011;52677;50.898;10.854;2022-12-29T05:03:53;2.25;;;1.35;;
65896;SDS011;52677;50.898;10.854;2022-12-29T05:05:54;2.47;;;1.40;;
65896;SDS011;52677;50.898;10.854;2022-12-29T05:07:55;1.73;;;1.20;;
65896;SDS011;52677;50.898;10.854;2022-12-29T05:09:55;2.28;;;1.67;;
65896;SDS011;52677;50.898;10.854;2022-12-29T05:11:56;2.53;;;1.30;;
65896;SDS011;52677;50.898;10.854;2022-12-29T05:13:56;1.77;;;1.40;;
65896;SDS011;52677;50.898;10.854;2022-12-29T05:15:56;1.88;;;1.50;;
65896;SDS011;52677;50.898;10.854;2022-12-29T05:17:57;1.30;;;1.20;;
65896;SDS011;52677;50.898;10.854;2022-12-29T05:19:57;2.13;;;1.48;;
65896;SDS011;52677;50.898;10.854;2022-12-29T05:21:58;1.80;;;1.30;;
65896;SDS011;52677;50.898;10.854;2022-12-29T05:23:58;2.00;;;1.27;;
65896;SDS011;52677;50.898;10.854;2022-12-29T05:25:59;1.60;;;1.20;;
65896;SDS011;52677;50.898;10.854;2022-12-29T05:27:59;1.85;;;1.33;;
65896;SDS011;52677;50.898;10.854;2022-12-29T05:29:59;2.38;;;1.70;;
65896;SDS011;52677;50.898;10.854;2022-12-29T05:32:00;2.95;;;1.30;;
65896;SDS011;52677;50.898;10.854;2022-12-29T05:34:00;2.67;;;1.48;;
65896;SDS011;52677;50.898;10.854;2022-12-29T05:36:04;3.70;;;1.55;;
65896;SDS011;52677;50.898;10.854;2022-12-29T05:38:05;2.33;;;1.50;;
65896;SDS011;52677;50.898;10.854;2022-12-29T05:40:06;3.25;;;1.60;;
65896;SDS011;52677;50.898;10.854;2022-12-29T05:42:07;2.10;;;1.25;;
65896;SDS011;52677;50.898;10.854;2022-12-29T05:44:07;2.08;;;1.40;;
65896;SDS011;52677;50.898;10.854;2022-12-29T05:46:07;3.20;;;1.42;;
65896;SDS011;52677;50.898;10.854;2022-12-29T05:48:08;4.07;;;1.35;;
65896;SDS011;52677;50.898;10.854;2022-12-29T05:50:08;1.63;;;1.20;;
65896;SDS011;52677;50.898;10.854;2022-12-29T05:52:09;2.40;;;1.50;;
65896;SDS011;52677;50.898;10.854;2022-12-29T05:54:09;2.97;;;1.50;;
65896;SDS011;52677;50.898;10.854;2022-12-29T05:56:09;2.25;;;1.35;;
65896;SDS011;52677;50.898;10.854;2022-12-29T05:58:10;2.38;;;1.73;;
65896;SDS011;52677;50.898;10.854;2022-12-29T06:00:10;2.35;;;1.40;;
65896;SDS011;52677;50.898;10.854;2022-12-29T06:02:11;2.03;;;1.30;;
65896;SDS011;52677;50.898;10.854;2022-12-29T06:04:11;3.38;;;1.40;;
65896;SDS011;52677;50.898;10.854;2022-12-29T06:06:12;2.50;;;1.33;;
65896;SDS011;52677;50.898;10.854;2022-12-29T06:08:12;2.28;;;1.30;;
65896;SDS011;52677;50.898;10.854;2022-12-29T06:10:12;2.83;;;1.25;;
65896;SDS011;52677;50.898;10.854;2022-12-29T06:12:13;1.38;;;1.10;;
65896;SDS011;52677;50.898;10.854;2022-12-29T06:14:13;1.88;;;1.10;;
65896;SDS011;52677;50.898;10.854;2022-12-29T06:16:14;1.33;;;1.23;;
65896;SDS011;52677;50.898;10.854;2022-12-29T06:18:14;2.35;;;1.50;;
65896;SDS011;52677;50.898;10.854;2022-12-29T06:20:14;2.03;;;1.40;;
65896;SDS011;52677;50.898;10.854;2022-12-29T06:22:15;1.83;;;1.38;;
65896;SDS011;52677;50.898;10.854;2022-12-29T06:24:15;4.75;;;1.95;;
65896;SDS011;52677;50.898;10.854;2022-12-29T06:26:16;1.38;;;1.20;;
65896;SDS011;52677;50.898;10.854;2022-12-29T06:28:16;1.60;;;1.27;;
65896;SDS011;52677;50.898;10.854;2022-12-29T06:30:17;2.92;;;1.35;;
65896;SDS011;52677;50.898;10.854;2022-12-29T06:32:17;4.45;;;1.25;;
65896;SDS011;52677;50.898;10.854;2022-12-29T06:34:17;2.22;;;1.50;;
65896;SDS011;52677;50.898;10.854;2022-12-29T06:36:18;1.67;;;1.27;;
65896;SDS011;52677;50.898;10.854;2022-12-29T06:38:18;1.88;;;1.20;;
65896;SDS011;52677;50.898;10.854;2022-12-29T06:40:19;2.58;;;1.38;;
65896;SDS011;52677;50.898;10.854;2022-12-29T06:42:20;3.15;;;1.38;;
65896;SDS011;52677;50.898;10.854;2022-12-29T06:44:20;3.10;;;1.13;;
65896;SDS011;52677;50.898;10.854;2022-12-29T06:46:21;2.67;;;1.20;;
65896;SDS011;52677;50.898;10.854;2022-12-29T06:48:22;2.65;;;1.38;;
65896;SDS011;52677;50.898;10.854;2022-12-29T06:50:22;1.42;;;1.17;;
65896;SDS011;52677;50.898;10.854;2022-12-29T06:52:22;2.58;;;1.25;;
65896;SDS011;52677;50.898;10.854;2022-12-29T06:54:24;1.77;;;1.20;;
65896;SDS011;52677;50.898;10.854;2022-12-29T06:56:24;1.40;;;1.05;;
65896;SDS011;52677;50.898;10.854;2022-12-29T06:58:24;3.70;;;1.95;;
65896;SDS011;52677;50.898;10.854;2022-12-29T07:00:25;3.03;;;1.42;;
65896;SDS011;52677;50.898;10.854;2022-12-29T07:02:25;1.63;;;1.20;;
65896;SDS011;52677;50.898;10.854;2022-12-29T07:04:26;5.03;;;2.78;;
65896;SDS011;52677;50.898;10.854;2022-12-29T07:06:26;2.58;;;1.60;;
65896;SDS011;52677;50.898;10.854;2022-12-29T07:08:26;2.03;;;1.70;;
65896;SDS011;52677;50.898;10.854;2022-12-29T07:10:27;2.30;;;1.17;;
65896;SDS011;52677;50.898;10.854;2022-12-29T07:12:27;15.80;;;6.82;;
65896;SDS011;52677;50.898;10.854;2022-12-29T07:14:28;9.18;;;4.60;;
65896;SDS011;52677;50.898;10.854;2022-12-29T07:16:28;11.75;;;5.40;;
65896;SDS011;52677;50.898;10.854;2022-12-29T07:18:30;10.48;;;5.40;;
65896;SDS011;52677;50.898;10.854;2022-12-29T07:20:30;10.45;;;5.38;;
65896;SDS011;52677;50.898;10.854;2022-12-29T07:22:31;12.75;;;6.78;;
65896;SDS011;52677;50.898;10.854;2022-12-29T07:24:31;3.95;;;2.20;;
65896;SDS011;52677;50.898;10.854;2022-12-29T07:26:32;2.28;;;1.45;;
65896;SDS011;52677;50.898;10.854;2022-12-29T07:28:32;3.50;;;2.00;;
65896;SDS011;52677;50.898;10.854;2022-12-29T07:30:36;4.07;;;2.53;;
65896;SDS011;52677;50.898;10.854;2022-12-29T07:34:37;2.53;;;1.42;;
65896;SDS011;52677;50.898;10.854;2022-12-29T07:36:39;1.70;;;1.33;;
65896;SDS011;52677;50.898;10.854;2022-12-29T07:38:40;2.72;;;1.30;;
65896;SDS011;52677;50.898;10.854;2022-12-29T07:40:41;2.13;;;1.20;;
65896;SDS011;52677;50.898;10.854;2022-12-29T07:42:42;1.83;;;1.00;;
65896;SDS011;52677;50.898;10.854;2022-12-29T07:44:42;1.13;;;1.02;;
65896;SDS011;52677;50.898;10.854;2022-12-29T07:46:42;2.08;;;1.00;;
65896;SDS011;52677;50.898;10.854;2022-12-29T07:48:43;1.40;;;1.20;;
65896;SDS011;52677;50.898;10.854;2022-12-29T07:50:43;1.15;;;1.05;;
65896;SDS011;52677;50.898;10.854;2022-12-29T07:52:43;1.30;;;1.13;;
65896;SDS011;52677;50.898;10.854;2022-12-29T07:54:44;2.20;;;1.10;;
65896;SDS011;52677;50.898;10.854;2022-12-29T07:56:45;0.98;;;0.90;;
65896;SDS011;52677;50.898;10.854;2022-12-29T07:58:46;1.38;;;1.15;;
65896;SDS011;52677;50.898;10.854;2022-12-29T08:00:46;0.85;;;0.82;;
65896;SDS011;52677;50.898;10.854;2022-12-29T08:02:46;1.23;;;0.90;;
65896;SDS011;52677;50.898;10.854;2022-12-29T08:04:47;2.20;;;1.20;;
65896;SDS011;52677;50.898;10.854;2022-12-29T08:06:47;1.50;;;1.05;;
65896;SDS011;52677;50.898;10.854;2022-12-29T08:08:47;1.83;;;1.30;;
65896;SDS011;52677;50.898;10.854;2022-12-29T08:10:48;1.42;;;1.08;;
65896;SDS011;52677;50.898;10.854;2022-12-29T08:12:48;2.97;;;1.40;;
65896;SDS011;52677;50.898;10.854;2022-12-29T08:14:48;1.65;;;1.17;;
65896;SDS011;52677;50.898;10.854;2022-12-29T08:16:49;2.45;;;1.30;;
65896;SDS011;52677;50.898;10.854;2022-12-29T08:18:49;1.65;;;1.35;;
65896;SDS011;52677;50.898;10.854;2022-12-29T08:20:49;2.40;;;1.85;;
65896;SDS011;52677;50.898;10.854;2022-12-29T08:22:50;1.55;;;1.30;;
65896;SDS011;52677;50.898;10.854;2022-12-29T08:24:51;2.25;;;1.20;;
65896;SDS011;52677;50.898;10.854;2022-12-29T08:26:51;1.48;;;1.15;;
65896;SDS011;52677;50.898;10.854;2022-12-29T08:28:52;1.73;;;1.20;;
65896;SDS011;52677;50.898;10.854;2022-12-29T08:30:56;1.20;;;1.02;;
65896;SDS011;52677;50.898;10.854;2022-12-29T08:32:58;2.45;;;1.23;;
65896;SDS011;52677;50.898;10.854;2022-12-29T08:34:58;1.88;;;1.35;;
65896;SDS011;52677;50.898;10.854;2022-12-29T08:36:59;1.65;;;1.20;;
65896;SDS011;52677;50.898;10.854;2022-12-29T08:38:59;3.30;;;1.50;;
65896;SDS011;52677;50.898;10.854;2022-12-29T08:40:59;2.20;;;1.70;;
65896;SDS011;52677;50.898;10.854;2022-12-29T08:43:01;3.55;;;2.20;;
65896;SDS011;52677;50.898;10.854;2022-12-29T08:45:01;2.38;;;1.77;;
65896;SDS011;52677;50.898;10.854;2022-12-29T08:47:02;2.00;;;1.40;;
65896;SDS011;52677;50.898;10.854;2022-12-29T08:49:02;2.65;;;1.40;;
65896;SDS011;52677;50.898;10.854;2022-12-29T08:51:03;1.30;;;1.20;;
65896;SDS011;52677;50.898;10.854;2022-12-29T08:53:03;1.88;;;1.45;;
65896;SDS011;52677;50.898;10.854;2022-12-29T08:55:04;4.60;;;1.77;;
65896;SDS011;52677;50.898;10.854;2022-12-29T08:57:04;4.45;;;1.40;;
65896;SDS011;52677;50.898;10.854;2022-12-29T08:59:05;2.83;;;1.52;;
65896;SDS011;52677;50.898;10.854;2022-12-29T09:01:05;1.67;;;1.20;;
65896;SDS011;52677;50.898;10.854;2022-12-29T09:03:06;3.60;;;1.70;;
65896;SDS011;52677;50.898;10.854;2022-12-29T09:05:06;3.00;;;1.40;;
65896;SDS011;52677;50.898;10.854;2022-12-29T09:07:07;2.67;;;1.52;;
65896;SDS011;52677;50.898;10.854;2022-12-29T09:09:07;3.05;;;1.60;;
65896;SDS011;52677;50.898;10.854;2022-12-29T09:13:11;1.67;;;1.17;;
65896;SDS011;52677;50.898;10.854;2022-12-29T09:15:12;4.15;;;1.70;;
65896;SDS011;52677;50.898;10.854;2022-12-29T09:17:13;2.97;;;1.90;;
65896;SDS011;52677;50.898;10.854;2022-12-29T09:19:32;3.17;;;2.45;;
65896;SDS011;52677;50.898;10.854;2022-12-29T09:21:33;4.53;;;2.80;;
65896;SDS011;52677;50.898;10.854;2022-12-29T09:23:34;3.25;;;1.75;;
65896;SDS011;52677;50.898;10.854;2022-12-29T09:25:34;2.10;;;1.60;;
65896;SDS011;52677;50.898;10.854;2022-12-29T09:27:35;4.63;;;3.03;;
65896;SDS011;52677;50.898;10.854;2022-12-29T09:29:36;3.47;;;2.17;;
65896;SDS011;52677;50.898;10.854;2022-12-29T09:31:36;2.75;;;2.35;;
65896;SDS011;52677;50.898;10.854;2022-12-29T09:33:37;3.53;;;2.80;;
65896;SDS011;52677;50.898;10.854;2022-12-29T09:35:40;4.55;;;3.35;;
65896;SDS011;52677;50.898;10.854;2022-12-29T09:37:42;3.75;;;2.75;;
65896;SDS011;52677;50.898;10.854;2022-12-29T09:39:43;3.15;;;1.92;;
65896;SDS011;52677;50.898;10.854;2022-12-29T09:42:05;2.80;;;1.88;;
65896;SDS011;52677;50.898;10.854;2022-12-29T09:44:31;2.67;;;2.22;;
65896;SDS011;52677;50.898;10.854;2022-12-29T09:46:39;1.75;;;1.50;;
65896;SDS011;52677;50.898;10.854;2022-12-29T09:48:44;3.60;;;1.70;;
65896;SDS011;52677;50.898;10.854;2022-12-29T09:50:48;5.95;;;2.20;;
65896;SDS011;52677;50.898;10.854;2022-12-29T09:52:55;2.40;;;1.80;;
65896;SDS011;52677;50.898;10.854;2022-12-29T09:57:36;7.07;;;2.75;;
65896;SDS011;52677;50.898;10.854;2022-12-29T09:59:42;4.45;;;2.22;;
65896;SDS011;52677;50.898;10.854;2022-12-29T10:01:59;3.45;;;2.50;;
65896;SDS011;52677;50.898;10.854;2022-12-29T10:04:11;3.47;;;2.38;;
65896;SDS011;52677;50.898;10.854;2022-12-29T10:06:17;3.15;;;1.67;;
65896;SDS011;52677;50.898;10.854;2022-12-29T10:10:42;2.60;;;1.60;;
65896;SDS011;52677;50.898;10.854;2022-12-29T10:12:54;1.50;;;1.23;;
65896;SDS011;52677;50.898;10.854;2022-12-29T10:24:10;2.85;;;1.98;;
65896;SDS011;52677;50.898;10.854;2022-12-29T10:26:15;2.85;;;1.40;;
65896;SDS011;52677;50.898;10.854;2022-12-29T10:28:19;1.92;;;1.42;;
65896;SDS011;52677;50.898;10.854;2022-12-29T10:30:22;2.42;;;1.85;;
65896;SDS011;52677;50.898;10.854;2022-12-29T10:32:32;3.25;;;1.20;;
65896;SDS011;52677;50.898;10.854;2022-12-29T10:34:39;2.15;;;1.30;;
65896;SDS011;52677;50.898;10.854;2022-12-29T10:36:46;2.05;;;1.52;;
65896;SDS011;52677;50.898;10.854;2022-12-29T10:41:11;3.17;;;1.92;;
65896;SDS011;52677;50.898;10.854;2022-12-29T10:43:28;2.03;;;1.60;;
65896;SDS011;52677;50.898;10.854;2022-12-29T10:45:30;5.07;;;1.58;;
65896;SDS011;52677;50.898;10.854;2022-12-29T10:47:32;2.78;;;1.50;;
65896;SDS011;52677;50.898;10.854;2022-12-29T10:49:42;2.17;;;1.63;;
65896;SDS011;52677;50.898;10.854;2022-12-29T10:51:45;4.20;;;1.70;;
65896;SDS011;52677;50.898;10.854;2022-12-29T10:53:50;2.80;;;1.67;;
65896;SDS011;52677;50.898;10.854;2022-12-29T10:55:54;3.58;;;1.60;;
65896;SDS011;52677;50.898;10.854;2022-12-29T10:57:55;2.45;;;1.45;;
65896;SDS011;52677;50.898;10.854;2022-12-29T10:59:59;2.53;;;1.50;;
65896;SDS011;52677;50.898;10.854;2022-12-29T11:02:06;2.85;;;1.38;;
65896;SDS011;52677;50.898;10.854;2022-12-29T11:06:34;4.32;;;2.50;;
65896;SDS011;52677;50.898;10.854;2022-12-29T11:08:38;4.20;;;2.42;;
65896;SDS011;52677;50.898;10.854;2022-12-29T11:10:45;3.88;;;2.40;;
65896;SDS011;52677;50.898;10.854;2022-12-29T11:12:56;3.35;;;2.20;;
65896;SDS011;52677;50.898;10.854;2022-12-29T11:15:06;3.85;;;2.50;;
65896;SDS011;52677;50.898;10.854;2022-12-29T11:17:16;1.98;;;1.52;;
65896;SDS011;52677;50.898;10.854;2022-12-29T11:19:22;4.40;;;2.25;;
65896;SDS011;52677;50.898;10.854;2022-12-29T11:23:31;2.33;;;1.85;;
65896;SDS011;52677;50.898;10.854;2022-12-29T11:25:41;3.20;;;2.33;;
65896;SDS011;52677;50.898;10.854;2022-12-29T11:27:42;4.55;;;2.40;;
65896;SDS011;52677;50.898;10.854;2022-12-29T11:30:10;3.30;;;1.90;;
65896;SDS011;52677;50.898;10.854;2022-12-29T11:32:25;4.75;;;1.70;;
65896;SDS011;52677;50.898;10.854;2022-12-29T11:34:30;2.72;;;1.52;;
65896;SDS011;52677;50.898;10.854;2022-12-29T11:36:33;2.20;;;1.77;;
65896;SDS011;52677;50.898;10.854;2022-12-29T11:40:38;3.85;;;1.50;;
65896;SDS011;52677;50.898;10.854;2022-12-29T11:42:40;4.13;;;1.92;;
65896;SDS011;52677;50.898;10.854;2022-12-29T11:44:47;4.38;;;2.63;;
65896;SDS011;52677;50.898;10.854;2022-12-29T11:46:49;5.82;;;3.28;;
65896;SDS011;52677;50.898;10.854;2022-12-29T11:48:51;4.75;;;2.22;;
65896;SDS011;52677;50.898;10.854;2022-12-29T11:50:56;7.22;;;2.38;;
65896;SDS011;52677;50.898;10.854;2022-12-29T11:53:03;4.85;;;2.60;;
65896;SDS011;52677;50.898;10.854;2022-12-29T11:55:13;3.60;;;2.45;;
65896;SDS011;52677;50.898;10.854;2022-12-29T11:57:18;8.13;;;2.90;;
65896;SDS011;52677;50.898;10.854;2022-12-29T12:01:30;5.30;;;3.33;;
65896;SDS011;52677;50.898;10.854;2022-12-29T12:03:37;5.05;;;2.90;;
65896;SDS011;52677;50.898;10.854;2022-12-29T12:05:46;3.50;;;1.73;;
65896;SDS011;52677;50.898;10.854;2022-12-29T12:10:19;3.13;;;1.73;;
65896;SDS011;52677;50.898;10.854;2022-12-29T12:12:27;4.72;;;1.90;;
65896;SDS011;52677;50.898;10.854;2022-12-29T12:14:45;3.67;;;1.77;;
65896;SDS011;52677;50.898;10.854;2022-12-29T12:16:55;3.55;;;2.08;;
65896;SDS011;52677;50.898;10.854;2022-12-29T12:21:10;2.78;;;1.77;;
65896;SDS011;52677;50.898;10.854;2022-12-29T12:25:36;3.83;;;1.95;;
65896;SDS011;52677;50.898;10.854;2022-12-29T12:32:20;3.15;;;1.80;;
65896;SDS011;52677;50.898;10.854;2022-12-29T12:34:46;2.03;;;1.55;;
65896;SDS011;52677;50.898;10.854;2022-12-29T12:39:47;2.45;;;1.65;;
65896;SDS011;52677;50.898;10.854;2022-12-29T12:41:53;4.22;;;2.80;;
65896;SDS011;52677;50.898;10.854;2022-12-29T12:44:22;2.72;;;1.92;;
65896;SDS011;52677;50.898;10.854;2022-12-29T12:53:12;2.50;;;1.50;;
65896;SDS011;52677;50.898;10.854;2022-12-29T12:55:24;2.97;;;1.90;;
65896;SDS011;52677;50.898;10.854;2022-12-29T13:00:02;1.88;;;1.50;;
65896;SDS011;52677;50.898;10.854;2022-12-29T13:02:21;1.75;;;1.40;;
65896;SDS011;52677;50.898;10.854;2022-12-29T13:06:59;2.15;;;1.50;;
65896;SDS011;52677;50.898;10.854;2022-12-29T13:15:56;2.00;;;1.30;;
65896;SDS011;52677;50.898;10.854;2022-12-29T13:20:59;3.03;;;1.58;;
65896;SDS011;52677;50.898;10.854;2022-12-29T13:28:31;3.92;;;1.67;;
65896;SDS011;52677;50.898;10.854;2022-12-29T13:30:12;1.88;;;1.00;;
65896;SDS011;52677;50.898;10.854;2022-12-29T13:36:44;2.03;;;1.23;;
65896;SDS011;52677;50.898;10.854;2022-12-29T13:38:48;6.05;;;1.88;;
65896;SDS011;52677;50.898;10.854;2022-12-29T13:41:16;2.75;;;1.40;;
65896;SDS011;52677;50.898;10.854;2022-12-29T13:43:21;3.40;;;1.85;;
65896;SDS011;52677;50.898;10.854;2022-12-29T13:45:24;2.33;;;1.13;;
65896;SDS011;52677;50.898;10.854;2022-12-29T13:48:12;1.75;;;1.20;;
65896;SDS011;52677;50.898;10.854;2022-12-29T13:49:56;1.83;;;1.00;;
65896;SDS011;52677;50.898;10.854;2022-12-29T13:52:01;3.20;;;1.50;;
65896;SDS011;52677;50.898;10.854;2022-12-29T13:56:20;1.10;;;0.80;;
65896;SDS011;52677;50.898;10.854;2022-12-29T13:58:38;2.28;;;0.90;;
65896;SDS011;52677;50.898;10.854;2022-12-29T14:06:04;4.78;;;1.42;;
65896;SDS011;52677;50.898;10.854;2022-12-29T14:08:25;2.33;;;1.23;;
65896;SDS011;52677;50.898;10.854;2022-12-29T14:14:41;1.80;;;0.98;;
65896;SDS011;52677;50.898;10.854;2022-12-29T14:16:42;1.65;;;0.82;;
65896;SDS011;52677;50.898;10.854;2022-12-29T14:18:43;2.50;;;0.82;;
65896;SDS011;52677;50.898;10.854;2022-12-29T14:21:00;3.00;;;1.17;;
65896;SDS011;52677;50.898;10.854;2022-12-29T14:25:11;2.67;;;1.52;;
65896;SDS011;52677;50.898;10.854;2022-12-29T14:27:52;6.57;;;2.17;;
65896;SDS011;52677;50.898;10.854;2022-12-29T14:29:53;3.60;;;1.35;;
65896;SDS011;52677;50.898;10.854;2022-12-29T14:31:54;2.75;;;1.48;;